Time;durP1;ratioP1;P1;durP2;ratioP2;P2;SDS_P1;SDS_P2;PMS_P1;PMS_P2;Temp;Humidity;BMP_temperature;BMP_pressure;BME280_temperature;BME280_humidity;BME280_pressure;Samples;Min_cycle;Max_cycle;Signal;HPM_P1;HPM_P2
2022/01/11 00:02:21;;;;;;;20.02;16.00;;;;;;;9.67;66.63;101424.16;4940742;28;104365;-49
2022/01/11 00:04:48;;;;;;;18.52;14.88;;;;;;;9.67;67.05;101424.16;4936763;28;102693;-48
2022/01/11 00:07:19;;;;;;;18.60;15.05;;;;;;;9.68;67.36;101431.22;4943378;28;102231;-48
2022/01/11 00:09:46;;;;;;;20.15;15.68;;;;;;;9.67;67.63;101429.59;4944451;28;102672;-48
2022/01/11 00:12:12;;;;;;;20.75;16.20;;;;;;;9.68;67.75;101442.09;4930510;28;105335;-47
2022/01/11 00:14:41;;;;;;;21.98;15.75;;;;;;;9.67;67.11;101435.03;4946306;28;102343;-48
2022/01/11 00:17:08;;;;;;;19.70;15.63;;;;;;;9.67;66.80;101437.72;4956253;28;102410;-48
2022/01/11 00:19:35;;;;;;;25.02;16.95;;;;;;;9.66;67.38;101430.63;4957843;28;102328;-48
2022/01/11 00:22:06;;;;;;;27.20;18.73;;;;;;;9.66;66.79;101444.22;4957798;28;103892;-48
2022/01/11 00:24:34;;;;;;;28.98;18.55;;;;;;;9.67;67.13;101432.31;4958839;28;102292;-47
2022/01/11 00:27:03;;;;;;;26.13;18.10;;;;;;;9.67;66.88;101435.03;4952769;28;102184;-47
2022/01/11 00:29:31;;;;;;;29.40;19.60;;;;;;;9.67;67.23;101435.03;4958842;28;102192;-48
2022/01/11 00:32:04;;;;;;;27.77;18.08;;;;;;;9.67;67.33;101429.59;4957884;28;103906;-46
2022/01/11 00:34:46;;;;;;;29.73;18.70;;;;;;;9.67;66.93;101434.19;4942914;28;102836;-49
2022/01/11 00:37:13;;;;;;;25.95;18.23;;;;;;;9.65;66.70;101442.59;4933782;28;102145;-48
2022/01/11 00:39:42;;;;;;;27.65;18.80;;;;;;;9.66;67.06;101444.22;4952882;28;102278;-49
2022/01/11 00:42:09;;;;;;;28.35;19.05;;;;;;;9.66;66.73;101449.66;4937412;28;103866;-46
2022/01/11 00:44:35;;;;;;;27.65;18.33;;;;;;;9.65;66.75;101445.31;4938952;28;104056;-49
2022/01/11 00:47:04;;;;;;;25.88;17.95;;;;;;;9.66;66.96;101446.94;4945068;28;102126;-47
2022/01/11 00:49:32;;;;;;;29.40;18.07;;;;;;;9.66;66.92;101446.94;4943230;28;102244;-46
2022/01/11 00:51:58;;;;;;;28.77;19.37;;;;;;;9.65;66.64;101442.59;4964316;28;108121;-47
2022/01/11 00:54:25;;;;;;;29.00;18.23;;;;;;;9.65;67.01;101437.16;4968955;28;102354;-49
2022/01/11 00:56:51;;;;;;;27.55;18.33;;;;;;;9.65;67.19;101448.00;4966222;28;103245;-46
2022/01/11 00:59:18;;;;;;;31.55;19.42;;;;;;;9.64;66.94;101446.38;4947576;28;102276;-48
2022/01/11 01:01:44;;;;;;;30.52;19.38;;;;;;;9.64;66.92;101446.38;4947601;28;103867;-49
2022/01/11 01:04:12;;;;;;;28.20;18.77;;;;;;;9.65;67.40;101445.31;4944409;28;106851;-48
2022/01/11 01:06:39;;;;;;;30.15;19.02;;;;;;;9.65;67.23;101449.91;4935000;28;102291;-49
2022/01/11 01:09:06;;;;;;;28.23;18.10;;;;;;;9.65;66.68;101442.59;4939187;28;102193;-48
2022/01/11 01:11:33;;;;;;;27.75;17.70;;;;;;;9.64;67.56;101446.38;4938530;28;104079;-48
2022/01/11 01:13:59;;;;;;;26.73;17.88;;;;;;;9.63;67.57;101445.56;4937444;28;102470;-48
2022/01/11 01:16:26;;;;;;;26.75;17.48;;;;;;;9.64;67.57;101449.09;4937762;28;102807;-49
2022/01/11 01:18:53;;;;;;;31.05;19.02;;;;;;;9.63;66.91;101439.31;4940319;28;102321;-49
2022/01/11 01:21:21;;;;;;;25.15;17.45;;;;;;;9.63;66.89;101444.75;4943851;28;103912;-48
2022/01/11 01:23:48;;;;;;;24.95;17.73;;;;;;;9.62;67.46;101443.88;4938311;28;102950;-48
2022/01/11 01:26:17;;;;;;;25.40;17.42;;;;;;;9.63;67.04;101450.19;4937941;28;102249;-48
2022/01/11 01:28:44;;;;;;;23.40;17.08;;;;;;;9.62;66.84;101443.06;4937579;28;102680;-48
2022/01/11 01:31:11;;;;;;;24.17;17.33;;;;;;;9.63;67.08;101444.75;4937614;28;103925;-48
2022/01/11 01:33:37;;;;;;;22.63;16.52;;;;;;;9.62;67.28;101448.50;4937374;28;102899;-48
2022/01/11 01:36:11;;;;;;;25.23;17.42;;;;;;;9.63;66.64;101455.63;4937684;28;102222;-47
2022/01/11 01:38:39;;;;;;;24.35;17.58;;;;;;;9.62;66.64;101459.38;4932120;28;102236;-48
2022/01/11 01:41:13;;;;;;;24.05;16.67;;;;;;;9.62;67.39;101470.25;4937346;28;102421;-48
2022/01/11 01:43:40;;;;;;;25.02;18.10;;;;;;;9.62;67.00;101470.25;4931822;28;102146;-49
2022/01/11 01:46:07;;;;;;;25.98;18.10;;;;;;;9.63;67.43;101490.94;4941624;28;102636;-50
2022/01/11 01:48:35;;;;;;;22.92;16.10;;;;;;;9.62;67.14;101483.84;4946980;28;102245;-48
2022/01/11 01:51:03;;;;;;;28.10;19.37;;;;;;;9.61;67.06;101493.06;4935150;28;103995;-47
2022/01/11 01:53:30;;;;;;;23.13;16.83;;;;;;;9.61;67.16;101496.59;4936002;28;102163;-48
2022/01/11 01:55:58;;;;;;;28.05;17.95;;;;;;;9.61;66.55;101496.59;4937240;28;102022;-48
2022/01/11 01:58:25;;;;;;;27.38;16.95;;;;;;;9.61;67.08;101509.38;4936689;28;102529;-49
2022/01/11 02:00:55;;;;;;;24.67;16.85;;;;;;;9.60;66.98;101505.84;4936709;28;104189;-47
2022/01/11 02:03:26;;;;;;;21.42;17.23;;;;;;;9.60;67.40;101514.00;4931002;28;102364;-49
2022/01/11 02:05:54;;;;;;;23.05;17.20;;;;;;;9.58;67.21;101513.41;4945286;28;102217;-48
2022/01/11 02:08:22;;;;;;;25.40;16.73;;;;;;;9.60;67.17;101511.28;4956477;28;102172;-48
2022/01/11 02:10:49;;;;;;;26.02;17.90;;;;;;;9.60;67.33;101526.75;4948882;28;104009;-48
2022/01/11 02:13:17;;;;;;;23.55;16.65;;;;;;;9.60;67.29;101518.59;4939848;28;102329;-48
2022/01/11 02:15:44;;;;;;;20.38;14.25;;;;;;;9.59;66.72;101531.38;4953946;28;102593;-47
2022/01/11 02:18:13;;;;;;;20.40;15.88;;;;;;;9.60;67.15;101524.84;4957754;28;103541;-49
2022/01/11 02:20:43;;;;;;;;;;;;;;;9.60;66.70;101526.75;4953521;28;103970;-47
2022/01/11 02:23:10;;;;;;;21.60;15.68;;;;;;;9.59;66.57;101525.09;4955993;28;102042;-48
2022/01/11 02:25:37;;;;;;;24.35;15.35;;;;;;;9.58;67.32;101523.44;4941139;28;102166;-48
2022/01/11 02:28:05;;;;;;;20.73;15.60;;;;;;;9.59;67.03;101522.38;4952257;28;102606;-48
2022/01/11 02:30:32;;;;;;;20.45;14.63;;;;;;;9.58;67.07;101515.28;4949195;28;102981;-48
2022/01/11 02:33:00;;;;;;;21.08;14.45;;;;;;;9.58;66.87;101518.84;4934242;28;102202;-48
2022/01/11 02:35:27;;;;;;;20.77;15.47;;;;;;;9.58;66.95;101510.69;4936633;28;102194;-48
2022/01/11 02:37:55;;;;;;;19.42;13.60;;;;;;;9.58;66.84;101512.56;4937470;28;102245;-49
2022/01/11 02:40:21;;;;;;;19.85;13.90;;;;;;;9.59;66.84;101516.94;4943447;28;103870;-48
2022/01/11 02:42:48;;;;;;;19.35;13.93;;;;;;;9.57;67.42;101511.75;4941611;28;102438;-48
2022/01/11 02:45:15;;;;;;;20.20;14.68;;;;;;;9.58;66.60;101523.44;4937720;28;102405;-49
2022/01/11 02:47:44;;;;;;;19.00;13.50;;;;;;;9.56;67.39;101509.31;4931624;28;102161;-48
2022/01/11 02:50:11;;;;;;;19.80;14.07;;;;;;;9.57;67.34;101516.38;4930981;28;103846;-48
2022/01/11 02:52:38;;;;;;;18.55;13.88;;;;;;;9.56;67.05;101515.56;4954335;28;102388;-48
2022/01/11 02:55:09;;;;;;;18.08;13.55;;;;;;;9.57;66.46;101516.38;4941978;28;102551;-49
2022/01/11 02:57:36;;;;;;;19.33;13.50;;;;;;;9.55;67.12;101513.06;4938277;28;102289;-48
2022/01/11 03:00:04;;;;;;;17.92;13.23;;;;;;;9.55;67.08;101523.94;4958973;28;107980;-48
2022/01/11 03:02:31;;;;;;;17.95;13.40;;;;;;;9.56;67.01;101528.31;4954244;28;102374;-47
2022/01/11 03:04:58;;;;;;;15.88;12.25;;;;;;;9.56;66.58;101522.88;4936241;28;102562;-47
2022/01/11 03:07:24;;;;;;;14.05;10.85;;;;;;;9.55;67.17;101519.31;4944656;28;102402;-48
2022/01/11 03:10:33;;;;;;;17.23;12.55;;;;;;;9.55;66.61;101535.63;4933352;28;103912;-48
2022/01/11 03:12:43;;;;;;;16.23;11.93;;;;;;;9.54;66.42;101533.16;4925995;28;102270;-48
2022/01/11 03:15:11;;;;;;;15.13;11.43;;;;;;;9.54;67.25;101525.00;4942068;28;102383;-49
2022/01/11 03:17:38;;;;;;;15.73;11.82;;;;;;;9.54;66.77;101544.03;4943351;28;102289;-49
2022/01/11 03:20:06;;;;;;;15.25;11.90;;;;;;;9.53;66.80;101536.97;4935493;28;103933;-48
2022/01/11 03:22:33;;;;;;;18.75;12.77;;;;;;;9.53;66.49;101536.97;4933406;28;103499;-48
2022/01/11 03:25:01;;;;;;;13.13;10.95;;;;;;;9.53;66.74;101536.97;4935191;28;101997;-49
2022/01/11 03:27:28;;;;;;;14.63;11.55;;;;;;;9.53;66.60;101531.53;4946557;28;102311;-50
2022/01/11 03:29:56;;;;;;;14.07;11.05;;;;;;;9.52;66.59;101530.69;4933216;28;104280;-49
2022/01/11 03:32:22;;;;;;;16.63;11.25;;;;;;;9.54;66.49;101533.16;4924753;28;102486;-49
2022/01/11 03:34:48;;;;;;;14.45;11.38;;;;;;;9.51;67.28;101530.94;4920166;28;102610;-49
2022/01/11 03:37:17;;;;;;;14.45;11.18;;;;;;;9.52;66.53;101546.16;4952074;28;102330;-47
2022/01/11 03:39:43;;;;;;;13.27;11.13;;;;;;;9.51;66.91;101544.50;4931393;28;104067;-47
2022/01/11 03:42:10;;;;;;;16.77;12.15;;;;;;;9.51;66.43;101552.66;4943434;28;102667;-45
2022/01/11 03:44:36;;;;;;;14.52;11.38;;;;;;;9.52;66.31;101559.75;4938583;28;102417;-50
2022/01/11 03:47:05;;;;;;;14.57;10.85;;;;;;;9.51;67.09;101571.69;4941936;28;102416;-50
2022/01/11 03:49:32;;;;;;;14.07;11.32;;;;;;;9.50;66.67;101570.03;4938279;28;104020;-53
2022/01/11 03:51:59;;;;;;;12.40;10.10;;;;;;;9.50;66.56;101573.59;4939506;28;102166;-49
2022/01/11 03:54:29;;;;;;;14.40;11.18;;;;;;;9.50;66.97;101575.47;4950115;28;102307;-48
2022/01/11 03:56:56;;;;;;;13.80;10.13;;;;;;;9.50;67.21;101570.88;4947440;28;102201;-49
2022/01/11 03:59:22;;;;;;;11.77;9.73;;;;;;;9.49;66.44;101565.69;4938741;28;103899;-48
2022/01/11 04:01:51;;;;;;;14.07;10.25;;;;;;;9.51;66.32;101582.56;4951036;28;102443;-48
2022/01/11 04:04:19;;;;;;;14.25;10.73;;;;;;;9.49;66.82;101573.84;4955981;28;102177;-48
2022/01/11 04:06:45;;;;;;;12.57;10.00;;;;;;;9.48;66.79;101589.28;4952923;28;102315;-47
2022/01/11 04:09:12;;;;;;;12.98;10.32;;;;;;;9.48;66.40;101583.03;4956068;28;103911;-48
2022/01/11 04:11:39;;;;;;;14.20;10.80;;;;;;;9.48;66.48;101588.47;4942033;28;102256;-49
2022/01/11 04:14:05;;;;;;;12.63;10.40;;;;;;;9.49;66.66;101595.56;4944016;28;102227;-48
2022/01/11 04:16:32;;;;;;;14.68;10.82;;;;;;;9.48;67.17;101599.34;4946219;28;104552;-49
2022/01/11 04:18:58;;;;;;;13.25;10.23;;;;;;;9.47;67.09;101592.25;4951546;28;102895;-48
2022/01/11 04:21:26;;;;;;;12.82;10.45;;;;;;;9.47;66.29;101586.84;4944023;28;102182;-49
2022/01/11 04:23:54;;;;;;;14.30;11.57;;;;;;;9.47;66.73;101592.25;4935124;28;102280;-49
2022/01/11 04:26:20;;;;;;;12.48;10.50;;;;;;;9.47;66.51;101597.69;4954094;28;102163;-47
2022/01/11 04:28:47;;;;;;;14.40;11.32;;;;;;;9.46;66.35;101593.34;4957101;28;103702;-48
2022/01/11 04:31:13;;;;;;;12.10;9.73;;;;;;;9.47;66.64;101597.69;4944117;28;102224;-49
2022/01/11 04:33:43;;;;;;;12.80;10.50;;;;;;;9.47;66.76;101597.69;4935884;28;102239;-48
2022/01/11 04:36:10;;;;;;;14.73;11.00;;;;;;;9.46;66.83;101604.22;4937323;28;102171;-48
2022/01/11 04:38:39;;;;;;;13.82;11.13;;;;;;;9.46;67.08;101602.31;4937372;28;102709;-47
2022/01/11 04:41:06;;;;;;;13.80;11.30;;;;;;;9.46;66.46;101596.06;4948082;28;102213;-48
2022/01/11 04:43:33;;;;;;;12.18;10.75;;;;;;;9.45;66.99;101588.94;4936713;28;102178;-48
2022/01/11 04:46:05;;;;;;;13.50;11.05;;;;;;;9.45;66.27;101606.09;4932558;28;102428;-48
2022/01/11 04:48:32;;;;;;;12.15;10.27;;;;;;;9.45;67.14;101589.81;4939078;28;103803;-49
2022/01/11 04:50:59;;;;;;;13.40;11.18;;;;;;;9.44;66.65;101592.75;4937904;28;102343;-49
2022/01/11 04:53:26;;;;;;;11.07;9.85;;;;;;;9.45;66.28;101583.53;4942647;28;102099;-49
2022/01/11 04:55:54;;;;;;;12.38;10.00;;;;;;;9.45;67.03;101583.53;4939412;28;102290;-48
2022/01/11 04:58:20;;;;;;;13.63;10.73;;;;;;;9.45;66.52;101594.38;4938457;28;104049;-48
2022/01/11 05:00:47;;;;;;;14.45;11.02;;;;;;;9.44;66.63;101600.91;4937241;28;102163;-48
2022/01/11 05:03:13;;;;;;;14.05;11.05;;;;;;;9.44;66.50;101606.31;4938578;28;102393;-46
2022/01/11 05:05:40;;;;;;;12.88;10.60;;;;;;;9.44;67.05;101609.03;4937907;28;102598;-46
2022/01/11 05:08:06;;;;;;;13.20;10.93;;;;;;;9.44;66.44;101614.47;4969116;28;107772;-48
2022/01/11 05:10:33;;;;;;;11.80;10.20;;;;;;;9.43;66.70;101607.41;4939930;28;102331;-49
2022/01/11 05:13:01;;;;;;;13.68;11.18;;;;;;;9.43;66.98;101618.28;4957358;28;102265;-46
2022/01/11 05:15:28;;;;;;;14.13;11.13;;;;;;;9.43;66.92;101624.53;4957898;28;102262;-48
2022/01/11 05:17:54;;;;;;;12.45;10.02;;;;;;;9.43;66.18;101629.13;4969525;28;104057;-48
2022/01/11 05:20:21;;;;;;;12.32;10.82;;;;;;;9.44;66.13;101633.50;4940527;28;103472;-48
2022/01/11 05:22:47;;;;;;;12.35;10.27;;;;;;;9.41;66.21;101632.09;4967346;28;102571;-49
2022/01/11 05:25:15;;;;;;;12.40;10.85;;;;;;;9.43;66.64;101640.00;4925571;28;102703;-48
2022/01/11 05:27:42;;;;;;;12.70;10.90;;;;;;;9.43;66.70;101629.13;4935919;28;103822;-48
2022/01/11 05:30:12;;;;;;;14.50;11.35;;;;;;;9.42;66.41;101644.63;4934919;28;102539;-48
2022/01/11 05:32:39;;;;;;;12.85;11.10;;;;;;;9.43;66.63;101653.59;4934374;28;102719;-48
2022/01/11 05:35:07;;;;;;;13.18;10.57;;;;;;;9.43;66.71;101642.72;4938149;28;102484;-48
2022/01/11 05:37:35;;;;;;;13.73;10.77;;;;;;;9.42;66.93;101646.53;4946611;28;103868;-47
2022/01/11 05:40:03;;;;;;;13.25;11.07;;;;;;;9.42;66.54;101644.63;4919817;28;102098;-48
2022/01/11 05:42:30;;;;;;;12.47;9.93;;;;;;;9.42;66.74;101649.22;4935888;28;102217;-48
2022/01/11 05:44:56;;;;;;;13.15;10.85;;;;;;;9.41;66.23;101644.84;4947741;28;102302;-48
2022/01/11 05:47:24;;;;;;;12.40;10.27;;;;;;;9.41;66.27;101655.72;4938968;28;103998;-48
2022/01/11 05:49:51;;;;;;;12.63;10.50;;;;;;;9.39;66.05;101645.91;4936254;28;102095;-47
2022/01/11 05:52:17;;;;;;;13.63;10.55;;;;;;;9.40;66.72;101652.19;4955290;28;102454;-48
2022/01/11 05:54:44;;;;;;;13.00;10.32;;;;;;;9.41;66.70;101653.81;4957104;28;103301;-49
2022/01/11 05:57:11;;;;;;;12.02;9.80;;;;;;;9.40;66.67;101663.03;4950078;28;104047;-48
2022/01/11 05:59:37;;;;;;;12.50;9.80;;;;;;;9.39;66.36;101662.22;4952217;28;103480;-48
2022/01/11 06:02:04;;;;;;;12.80;9.82;;;;;;;9.39;66.87;101675.81;4936881;28;104828;-48
2022/01/11 06:04:32;;;;;;;11.32;9.23;;;;;;;9.40;66.15;101673.91;4954515;28;102164;-48
2022/01/11 06:06:59;;;;;;;10.90;9.40;;;;;;;9.39;66.55;101678.53;4942845;28;104166;-47
2022/01/11 06:09:27;;;;;;;10.88;8.23;;;;;;;9.39;66.03;101683.13;4943317;28;102270;-48
2022/01/11 06:11:54;;;;;;;11.20;9.50;;;;;;;9.40;66.15;101684.78;4935782;28;102555;-48
2022/01/11 06:14:22;;;;;;;11.68;8.75;;;;;;;9.39;66.13;101694.00;4951922;28;102468;-48
2022/01/11 06:16:48;;;;;;;9.98;8.18;;;;;;;9.39;66.95;101689.38;4950761;28;103867;-49
2022/01/11 06:19:15;;;;;;;11.32;9.55;;;;;;;9.38;66.49;101698.63;4946191;28;102294;-49
2022/01/11 06:21:42;;;;;;;10.00;8.75;;;;;;;9.38;66.10;101698.63;4948129;28;102651;-47
2022/01/11 06:24:09;;;;;;;8.57;7.68;;;;;;;9.38;65.99;101708.66;4948600;28;102189;-49
2022/01/11 06:26:36;;;;;;;11.18;8.45;;;;;;;9.38;66.14;101714.09;4941107;28;103868;-48
2022/01/11 06:29:03;;;;;;;11.02;8.70;;;;;;;9.37;66.10;101721.38;4935005;28;102711;-48
2022/01/11 06:31:35;;;;;;;9.98;8.60;;;;;;;9.36;66.66;101719.75;4936596;28;102108;-46
2022/01/11 06:34:01;;;;;;;10.27;8.38;;;;;;;9.36;66.90;101725.19;4948984;28;102339;-48
2022/01/11 06:36:28;;;;;;;10.70;8.95;;;;;;;9.36;66.52;101722.47;4945156;28;104031;-48
2022/01/11 06:38:56;;;;;;;12.32;9.30;;;;;;;9.36;66.28;101733.31;4944677;28;102629;-49
2022/01/11 06:41:23;;;;;;;11.45;9.52;;;;;;;9.36;65.97;101744.19;4951697;28;102364;-48
2022/01/11 06:43:52;;;;;;;13.18;9.32;;;;;;;9.36;65.95;101748.81;4943645;28;102187;-47
2022/01/11 06:46:20;;;;;;;13.55;9.27;;;;;;;9.35;65.94;101753.41;4931573;28;102615;-48
2022/01/11 06:48:47;;;;;;;11.82;9.40;;;;;;;9.35;66.69;101748.00;4945335;28;102119;-48
2022/01/11 06:51:13;;;;;;;12.38;10.00;;;;;;;9.36;66.25;101759.69;4936475;28;102414;-49
2022/01/11 06:53:40;;;;;;;11.05;8.77;;;;;;;9.35;66.82;101761.56;4946816;28;102686;-47
2022/01/11 06:56:08;;;;;;;12.63;9.30;;;;;;;9.36;66.43;101763.22;4936835;28;105679;-48
2022/01/11 06:58:34;;;;;;;11.75;9.70;;;;;;;9.36;66.13;101776.78;4928828;28;102237;-48
2022/01/11 07:01:01;;;;;;;11.40;8.90;;;;;;;9.35;65.84;101783.31;4930102;28;103933;-48
2022/01/11 07:03:28;;;;;;;15.05;9.27;;;;;;;9.36;66.01;101781.41;4937921;28;102512;-48
2022/01/11 07:05:54;;;;;;;11.25;9.13;;;;;;;9.37;66.25;101785.78;4938331;28;104062;-49
2022/01/11 07:08:21;;;;;;;11.55;9.88;;;;;;;9.36;66.62;101787.66;4933441;28;103467;-49
2022/01/11 07:10:54;;;;;;;11.27;8.85;;;;;;;9.37;66.71;101791.22;4944110;28;103827;-48
2022/01/11 07:13:22;;;;;;;10.15;8.43;;;;;;;9.36;66.41;101793.09;4932822;28;102681;-49
2022/01/11 07:15:48;;;;;;;10.13;8.63;;;;;;;9.36;66.52;101798.53;4935290;28;103978;-49
2022/01/11 07:18:15;;;;;;;10.27;9.18;;;;;;;9.36;66.53;101795.81;4934011;28;102391;-48
2022/01/11 07:20:42;;;;;;;9.98;8.50;;;;;;;9.36;65.77;101797.72;4946183;28;104758;-49
2022/01/11 07:23:09;;;;;;;10.15;8.90;;;;;;;9.35;66.42;101802.31;4950735;28;102244;-49
2022/01/11 07:25:36;;;;;;;10.68;9.32;;;;;;;9.36;65.85;101803.97;4955828;28;103905;-48
2022/01/11 07:28:04;;;;;;;9.20;8.10;;;;;;;9.35;65.98;101813.19;4932460;28;102610;-47
2022/01/11 07:30:33;;;;;;;9.57;8.57;;;;;;;9.35;66.12;101813.19;4926496;28;102765;-48
2022/01/11 07:32:59;;;;;;;9.15;8.05;;;;;;;9.34;66.37;101811.53;4936261;28;102346;-48
2022/01/11 07:35:26;;;;;;;10.35;8.07;;;;;;;9.34;66.20;101816.97;4946084;28;104110;-48
2022/01/11 07:37:52;;;;;;;9.60;8.23;;;;;;;9.34;66.35;101797.09;4937963;28;102197;-49
2022/01/11 07:40:19;;;;;;;9.63;8.50;;;;;;;9.34;66.55;101795.25;4943189;28;103603;-47
2022/01/11 07:42:46;;;;;;;10.68;8.55;;;;;;;9.33;66.29;101796.28;4937607;28;102333;-49
2022/01/11 07:45:12;;;;;;;10.75;8.77;;;;;;;9.34;66.48;101806.09;4952051;28;107967;-48
2022/01/11 07:47:40;;;;;;;10.45;8.80;;;;;;;9.33;66.49;101799.00;4946584;28;102724;-48
2022/01/11 07:50:08;;;;;;;11.07;8.45;;;;;;;9.33;66.65;101807.16;4934463;28;102103;-47
2022/01/11 07:52:34;;;;;;;10.98;8.40;;;;;;;9.33;66.08;101801.72;4935077;28;102139;-48
2022/01/11 07:55:01;;;;;;;9.27;7.85;;;;;;;9.32;65.90;101791.91;4923584;28;103821;-48
2022/01/11 07:57:28;;;;;;;10.57;8.70;;;;;;;9.33;65.90;101801.72;4949813;28;104628;-49
2022/01/11 07:59:55;;;;;;;10.65;8.55;;;;;;;9.32;66.28;101791.91;4956968;28;102436;-47
2022/01/11 08:02:23;;;;;;;8.60;7.70;;;;;;;9.33;66.55;101800.91;4957541;28;102384;-48
2022/01/11 08:04:53;;;;;;;9.93;8.05;;;;;;;9.32;65.71;101800.06;4953330;28;104192;-48
2022/01/11 08:07:19;;;;;;;9.63;7.18;;;;;;;9.32;66.60;101804.69;4936462;28;102335;-49
2022/01/11 08:09:46;;;;;;;9.93;8.15;;;;;;;9.31;66.38;101803.03;4936119;28;102887;-46
2022/01/11 08:12:16;;;;;;;8.38;7.47;;;;;;;9.31;66.00;101801.16;4938819;28;103114;-47
2022/01/11 08:14:42;;;;;;;9.18;7.65;;;;;;;9.31;65.67;101806.56;4928023;28;103916;-49
2022/01/11 08:17:09;;;;;;;9.48;8.02;;;;;;;9.32;66.00;101801.97;4932894;28;104174;-49
2022/01/11 08:19:36;;;;;;;8.50;6.88;;;;;;;9.31;65.84;101790.28;4943872;28;102696;-48
2022/01/11 08:22:04;;;;;;;8.23;7.22;;;;;;;9.31;66.06;101803.84;4936777;28;103203;-49
2022/01/11 08:24:31;;;;;;;9.23;7.28;;;;;;;9.31;65.88;101806.56;4956356;28;105163;-47
2022/01/11 08:26:57;;;;;;;10.02;7.53;;;;;;;9.31;66.32;101805.75;4946551;28;102321;-49
2022/01/11 08:29:24;;;;;;;9.25;7.53;;;;;;;9.31;66.27;101806.56;4938092;28;102720;-48
2022/01/11 08:31:50;;;;;;;8.77;7.20;;;;;;;9.31;66.38;101803.03;4956134;28;102567;-47
2022/01/11 08:34:17;;;;;;;8.32;6.93;;;;;;;9.31;65.60;101803.03;4955019;28;103933;-49
2022/01/11 08:36:48;;;;;;;7.90;6.68;;;;;;;9.30;66.12;101806.78;4944130;28;102402;-49
2022/01/11 08:39:16;;;;;;;8.02;7.22;;;;;;;9.30;66.04;101796.75;4933684;28;102593;-50
2022/01/11 08:41:43;;;;;;;8.00;6.95;;;;;;;9.30;65.68;101794.03;4935538;28;103453;-49
2022/01/11 08:44:10;;;;;;;8.35;7.00;;;;;;;9.31;66.04;101795.72;4935729;28;104051;-48
2022/01/11 08:46:36;;;;;;;7.82;6.68;;;;;;;9.31;65.77;101789.47;4939568;28;103629;-48
2022/01/11 08:49:03;;;;;;;6.53;5.93;;;;;;;9.31;65.53;101794.88;4934403;28;102105;-48
2022/01/11 08:51:29;;;;;;;7.95;7.15;;;;;;;9.30;66.40;101788.59;4938892;28;102808;-48
2022/01/11 08:53:56;;;;;;;7.57;6.68;;;;;;;9.29;66.43;101792.38;4936344;28;104150;-48
2022/01/11 08:56:25;;;;;;;8.95;6.50;;;;;;;9.29;66.03;101784.25;4934336;28;103680;-49
2022/01/11 08:58:51;;;;;;;66.82;13.15;;;;;;;9.30;66.41;101782.34;4945437;28;102334;-47
2022/01/11 14:16:56;;;;;;;27.98;13.77;;;;;;;8.22;62.17;101878.31;5015794;27;102346;-90
2022/01/11 14:19:26;;;;;;;23.13;12.75;;;;;;;8.20;62.27;101902.97;4991770;28;102264;-93
2022/01/11 14:21:56;;;;;;;20.45;13.15;;;;;;;8.24;61.82;101909.59;4990678;28;103293;-92
2022/01/11 14:24:24;;;;;;;21.02;12.32;;;;;;;8.26;62.03;101906.63;5004744;28;105217;-92
2022/01/11 14:26:51;;;;;;;23.08;12.35;;;;;;;8.28;61.70;101908.06;5002683;28;102156;-92
2022/01/11 14:30:05;;;;;;;19.67;12.60;;;;;;;8.29;62.20;101904.28;4988633;28;102232;-92
2022/01/11 14:32:46;;;;;;;18.73;12.65;;;;;;;8.32;61.90;101911.97;4991485;28;102715;-91
2022/01/11 14:35:14;;;;;;;16.10;10.63;;;;;;;8.32;62.55;101913.88;4993220;28;103367;-93
2022/01/11 14:37:42;;;;;;;21.02;11.85;;;;;;;8.34;62.22;101923.44;4990400;28;102362;-94
2022/01/11 14:40:18;;;;;;;15.82;11.48;;;;;;;8.36;61.87;101918.59;4990187;28;102403;-89
2022/01/11 14:42:45;;;;;;;16.80;11.35;;;;;;;8.37;61.79;101914.91;4985048;28;102788;-92
2022/01/11 14:45:15;;;;;;;22.60;11.02;;;;;;;8.39;62.15;101901.09;4985953;28;102036;-91
2022/01/11 14:47:49;;;;;;;20.13;10.82;;;;;;;8.40;62.33;101914.44;4989911;28;102246;-93
2022/01/11 14:50:22;;;;;;;24.10;11.80;;;;;;;8.42;61.92;101912.31;4990034;28;102017;-92
2022/01/11 14:52:50;;;;;;;14.00;10.10;;;;;;;8.45;61.24;101916.47;4991082;28;103652;-93
2022/01/11 14:55:18;;;;;;;19.38;8.65;;;;;;;8.47;61.59;101918.94;4979445;28;102529;-93
2022/01/11 14:58:00;;;;;;;22.73;11.15;;;;;;;8.48;62.16;101920.63;4968915;28;102720;-95
2022/01/11 15:00:41;;;;;;;25.02;11.65;;;;;;;8.51;61.60;101933.69;4999683;28;101398;-96
2022/01/11 15:03:14;;;;;;;20.20;10.55;;;;;;;8.53;62.14;101939.75;4991307;28;102141;-96
2022/01/11 15:05:41;;;;;;;19.10;10.25;;;;;;;8.55;61.57;101934.94;4980275;28;102040;-94
2022/01/11 15:08:08;;;;;;;16.55;11.00;;;;;;;8.58;61.72;101939.88;4989148;28;102194;-95
2022/01/11 15:10:36;;;;;;;17.75;11.07;;;;;;;8.58;62.05;101931.72;4991859;28;102241;-94
2022/01/11 15:13:17;;;;;;;15.55;10.10;;;;;;;8.60;62.02;101935.06;5004506;28;102260;-95
2022/01/11 15:15:46;;;;;;;16.20;10.38;;;;;;;8.62;61.61;101927.53;4982035;28;101474;-95
2022/01/11 15:18:35;;;;;;;16.92;10.23;;;;;;;8.64;61.40;101952.53;4998168;28;101125;-96
2022/01/11 15:21:12;;;;;;;15.77;9.32;;;;;;;8.66;61.49;101955.88;5003373;28;101559;-94
2022/01/11 15:23:50;;;;;;;19.55;10.65;;;;;;;8.68;61.68;101959.16;4990274;28;103800;-96
2022/01/11 15:30:07;;;;;;;14.43;9.10;;;;;;;8.71;61.40;101964.13;4899462;28;101445;-96
2022/01/11 15:32:34;;;;;;;16.05;9.40;;;;;;;8.73;61.31;101967.47;4893420;28;102467;-94
2022/01/11 15:35:03;;;;;;;16.90;9.43;;;;;;;8.75;61.79;101962.63;4992734;28;102327;-94
2022/01/11 15:37:30;;;;;;;14.35;9.20;;;;;;;8.75;61.41;101965.34;4990080;28;102421;-94
2022/01/11 15:39:57;;;;;;;15.25;9.95;;;;;;;8.78;61.36;101969.50;4973595;28;101997;-94
2022/01/11 15:42:24;;;;;;;12.48;10.05;;;;;;;8.78;61.92;101983.88;4977690;28;102573;-96
2022/01/11 15:44:51;;;;;;;14.27;9.60;;;;;;;8.80;61.64;101984.50;4979873;28;102338;-94
2022/01/11 15:47:18;;;;;;;13.18;9.40;;;;;;;8.80;61.51;101979.06;4975676;28;102139;-93
2022/01/11 15:49:44;;;;;;;11.75;8.98;;;;;;;8.83;61.34;101988.63;4977905;28;102066;-93
2022/01/11 15:52:12;;;;;;;14.13;8.40;;;;;;;8.84;61.50;101976.72;4974470;28;103310;-96
2022/01/11 15:54:39;;;;;;;12.02;9.25;;;;;;;8.85;61.60;101989.22;4976679;28;102443;-94
2022/01/11 15:57:05;;;;;;;11.13;8.20;;;;;;;8.86;61.29;101982.75;4972973;28;102389;-96
2022/01/11 15:59:38;;;;;;;12.82;8.50;;;;;;;8.86;61.53;101978.13;4971664;28;102181;-96
2022/01/11 16:02:35;;;;;;;11.80;8.85;;;;;;;8.89;61.80;101985.81;4992234;28;101495;-96
2022/01/11 16:05:11;;;;;;;11.13;8.90;;;;;;;8.90;61.84;101983.94;4992650;28;103513;-95
2022/01/11 16:07:39;;;;;;;11.13;8.70;;;;;;;8.92;61.22;101997.28;4973131;28;102142;-94
2022/01/11 16:10:06;;;;;;;10.43;8.15;;;;;;;8.93;61.66;101998.94;4986998;28;102643;-95
2022/01/11 16:12:33;;;;;;;9.63;8.18;;;;;;;8.94;61.73;102003.31;4995254;28;101797;-94
2022/01/11 16:14:59;;;;;;;11.93;8.45;;;;;;;8.94;61.31;102011.44;4977247;28;102706;-94
2022/01/11 16:17:25;;;;;;;9.63;7.53;;;;;;;8.95;61.92;102003.09;4974723;28;102122;-95
2022/01/11 16:19:52;;;;;;;11.60;8.32;;;;;;;8.96;61.51;102006.63;4972189;28;102117;-95
2022/01/11 16:22:20;;;;;;;9.65;7.25;;;;;;;8.97;61.40;102005.56;4973713;28;102112;-94
2022/01/11 16:24:48;;;;;;;9.10;7.18;;;;;;;8.96;61.07;102004.75;4979104;28;105051;-96
2022/01/11 16:27:15;;;;;;;9.85;7.95;;;;;;;8.99;61.73;102017.03;4969486;28;101688;-96
2022/01/11 16:29:41;;;;;;;10.40;7.68;;;;;;;8.99;61.20;102014.31;4981156;28;102207;-93
2022/01/11 16:32:08;;;;;;;11.68;7.78;;;;;;;9.01;61.89;102017.63;4984784;28;101616;-96
2022/01/11 16:34:40;;;;;;;8.65;6.20;;;;;;;9.01;61.57;102023.06;4988282;28;101486;-93
2022/01/11 16:37:14;;;;;;;10.38;7.55;;;;;;;9.01;60.92;102021.16;4983545;28;102705;-94
2022/01/11 16:39:46;;;;;;;8.23;7.25;;;;;;;9.03;61.46;102015.53;4976142;28;102082;-96